Time;durP1;ratioP1;P1;durP2;ratioP2;P2;SDS_P1;SDS_P2;PMS_P1;PMS_P2;Temp;Humidity;BMP_temperature;BMP_pressure;BME280_temperature;BME280_humidity;BME280_pressure;Samples;Min_cycle;Max_cycle;Signal;HPM_P1;HPM_P2
2021/03/18 00:00:12;;;;;;;8.48;5.43;;;;;;;;;;5057354;28;20111;-85
2021/03/18 00:02:39;;;;;;;7.63;5.43;;;;;;;;;;5057152;28;20108;-85
2021/03/18 00:05:06;;;;;;;8.60;5.25;;;;;;;;;;5057143;28;20048;-85
2021/03/18 00:07:32;;;;;;;8.48;5.47;;;;;;;;;;5057633;28;20028;-85
2021/03/18 00:09:58;;;;;;;8.02;5.03;;;;;;;;;;5044200;28;20025;-84
2021/03/18 00:12:24;;;;;;;8.02;5.00;;;;;;;;;;5057334;28;20075;-84
2021/03/18 00:14:50;;;;;;;7.50;5.32;;;;;;;;;;5057555;28;20491;-85
2021/03/18 00:17:16;;;;;;;8.90;5.13;;;;;;;;;;5060451;28;20028;-85
2021/03/18 00:19:42;;;;;;;9.35;5.72;;;;;;;;;;5057382;28;20021;-84
2021/03/18 00:22:08;;;;;;;9.57;5.60;;;;;;;;;;5056898;28;20076;-84
2021/03/18 00:24:34;;;;;;;8.57;6.03;;;;;;;;;;5057166;28;20115;-85
2021/03/18 00:27:00;;;;;;;11.80;6.43;;;;;;;;;;5057617;28;20548;-85
2021/03/18 00:29:26;;;;;;;11.02;5.22;;;;;;;;;;5057258;28;20029;-84
2021/03/18 00:31:52;;;;;;;9.27;5.70;;;;;;;;;;5062364;28;20063;-84
2021/03/18 00:34:18;;;;;;;8.25;5.95;;;;;;;;;;5059912;28;21408;-85
2021/03/18 00:36:44;;;;;;;7.72;5.20;;;;;;;;;;5064358;28;20028;-85
2021/03/18 00:39:11;;;;;;;7.38;5.53;;;;;;;;;;5055676;28;20053;-85
2021/03/18 00:41:37;;;;;;;8.27;5.30;;;;;;;;;;5058512;28;20035;-85
2021/03/18 00:44:04;;;;;;;8.07;5.68;;;;;;;;;;5056886;28;20033;-85
2021/03/18 00:46:30;;;;;;;8.18;5.65;;;;;;;;;;5057124;28;20055;-85
2021/03/18 00:48:56;;;;;;;8.43;5.53;;;;;;;;;;5055963;28;20056;-85
2021/03/18 00:51:22;;;;;;;7.32;5.25;;;;;;;;;;5056982;28;20416;-85
2021/03/18 00:53:49;;;;;;;8.38;5.10;;;;;;;;;;5062545;28;20033;-85
2021/03/18 00:56:16;;;;;;;6.30;5.03;;;;;;;;;;5058945;28;20029;-85
2021/03/18 00:58:43;;;;;;;7.85;5.10;;;;;;;;;;5058849;28;20069;-85
2021/03/18 01:01:09;;;;;;;10.50;5.35;;;;;;;;;;5055004;28;20026;-85
2021/03/18 01:03:39;;;;;;;7.72;5.70;;;;;;;;;;5056437;28;20028;-85
2021/03/18 01:06:06;;;;;;;7.90;5.45;;;;;;;;;;5056151;28;20116;-85
2021/03/18 01:08:33;;;;;;;10.45;5.82;;;;;;;;;;5054822;28;20094;-85
2021/03/18 01:11:04;;;;;;;7.88;5.47;;;;;;;;;;5055994;28;20032;-85
2021/03/18 01:13:30;;;;;;;7.45;5.70;;;;;;;;;;5055822;28;20064;-85
2021/03/18 01:15:58;;;;;;;10.88;5.75;;;;;;;;;;5042170;28;20463;-85
2021/03/18 01:18:27;;;;;;;7.50;5.30;;;;;;;;;;5056099;28;20025;-85
2021/03/18 01:20:54;;;;;;;10.00;5.68;;;;;;;;;;5055436;28;20154;-84
2021/03/18 01:23:20;;;;;;;7.00;5.25;;;;;;;;;;5055981;28;20108;-84
2021/03/18 01:25:46;;;;;;;8.05;5.28;;;;;;;;;;5055638;28;20106;-84
2021/03/18 01:28:12;;;;;;;7.90;5.35;;;;;;;;;;5055408;28;20100;-84
2021/03/18 01:30:39;;;;;;;6.65;5.25;;;;;;;;;;5066945;28;20132;-84
2021/03/18 01:33:06;;;;;;;6.90;5.03;;;;;;;;;;5055622;28;20047;-84
2021/03/18 01:35:32;;;;;;;6.82;4.93;;;;;;;;;;5057205;28;20025;-84
2021/03/18 01:37:58;;;;;;;8.05;5.05;;;;;;;;;;5057492;28;20040;-84
2021/03/18 01:40:26;;;;;;;5.82;4.60;;;;;;;;;;5067289;28;20025;-84
2021/03/18 01:42:53;;;;;;;8.45;4.53;;;;;;;;;;5046547;28;20033;-84
2021/03/18 01:45:19;;;;;;;7.80;5.25;;;;;;;;;;5035541;28;20029;-85
2021/03/18 01:47:47;;;;;;;8.05;5.07;;;;;;;;;;5046505;28;20493;-86
2021/03/18 01:50:15;;;;;;;6.15;4.32;;;;;;;;;;5055615;28;20032;-84
2021/03/18 01:52:41;;;;;;;6.65;4.35;;;;;;;;;;5055493;28;20036;-84
2021/03/18 01:55:08;;;;;;;8.15;5.18;;;;;;;;;;5055449;28;20079;-84
2021/03/18 01:57:34;;;;;;;6.85;4.50;;;;;;;;;;5055677;28;20064;-84
2021/03/18 02:00:01;;;;;;;5.95;4.53;;;;;;;;;;5055327;28;20067;-84
2021/03/18 02:02:27;;;;;;;8.75;5.00;;;;;;;;;;5049982;28;20035;-84
2021/03/18 02:04:54;;;;;;;8.93;5.82;;;;;;;;;;5055036;28;20491;-84
2021/03/18 02:07:20;;;;;;;8.23;5.43;;;;;;;;;;5055369;28;20025;-85
2021/03/18 02:09:46;;;;;;;8.13;5.43;;;;;;;;;;5055619;28;20460;-84
2021/03/18 02:12:12;;;;;;;7.85;4.65;;;;;;;;;;5055321;28;20029;-85
2021/03/18 02:14:38;;;;;;;6.85;4.72;;;;;;;;;;5055345;28;20033;-84
2021/03/18 02:17:06;;;;;;;7.78;4.75;;;;;;;;;;5055173;28;20067;-84
2021/03/18 02:19:43;;;;;;;8.23;5.55;;;;;;;;;;5041995;28;20372;-85
2021/03/18 02:22:19;;;;;;;7.80;5.20;;;;;;;;;;5054813;28;20519;-84
2021/03/18 02:24:56;;;;;;;7.53;5.28;;;;;;;;;;5055230;28;20357;-84
2021/03/18 02:27:25;;;;;;;8.77;5.18;;;;;;;;;;5055194;28;20028;-85
2021/03/18 02:30:00;;;;;;;9.23;5.00;;;;;;;;;;5054387;28;20029;-85
2021/03/18 02:32:40;;;;;;;8.73;5.25;;;;;;;;;;5055093;28;20041;-85
2021/03/18 02:35:18;;;;;;;8.18;4.90;;;;;;;;;;5054785;28;20037;-85
2021/03/18 02:37:51;;;;;;;6.55;4.22;;;;;;;;;;5054857;28;20029;-85
2021/03/18 02:40:21;;;;;;;9.15;4.38;;;;;;;;;;5054830;28;20036;-84
2021/03/18 02:42:51;;;;;;;6.93;4.80;;;;;;;;;;5054687;28;20053;-84
2021/03/18 02:45:18;;;;;;;7.57;5.20;;;;;;;;;;5054693;28;20023;-84
2021/03/18 02:47:44;;;;;;;6.97;4.53;;;;;;;;;;5054631;28;20029;-84
2021/03/18 02:50:11;;;;;;;8.20;4.50;;;;;;;;;;5054698;28;20112;-84
2021/03/18 02:52:39;;;;;;;7.75;5.00;;;;;;;;;;5054528;28;20039;-85
2021/03/18 02:55:06;;;;;;;7.03;4.88;;;;;;;;;;5054385;28;20048;-84
2021/03/18 02:57:33;;;;;;;7.47;4.55;;;;;;;;;;5054437;28;20052;-84
2021/03/18 03:00:00;;;;;;;9.88;4.50;;;;;;;;;;5053035;28;20568;-85
2021/03/18 03:02:28;;;;;;;6.43;4.50;;;;;;;;;;5054457;28;20094;-84
2021/03/18 03:04:55;;;;;;;6.05;4.43;;;;;;;;;;5054432;28;20044;-84
2021/03/18 03:07:23;;;;;;;7.47;4.75;;;;;;;;;;5054265;28;20032;-85
2021/03/18 03:09:49;;;;;;;6.18;4.55;;;;;;;;;;5054337;28;20072;-84
2021/03/18 03:12:16;;;;;;;7.13;4.38;;;;;;;;;;5054228;28;20437;-85
2021/03/18 03:14:43;;;;;;;7.10;4.60;;;;;;;;;;5058460;28;20042;-85
2021/03/18 03:17:10;;;;;;;7.30;4.72;;;;;;;;;;5060746;28;20040;-84
2021/03/18 03:19:38;;;;;;;8.68;4.53;;;;;;;;;;5047335;28;20087;-85
2021/03/18 03:22:05;;;;;;;7.63;4.40;;;;;;;;;;5047320;28;20037;-85
2021/03/18 03:24:33;;;;;;;6.47;4.43;;;;;;;;;;5054243;28;20032;-85
2021/03/18 03:27:00;;;;;;;6.82;4.85;;;;;;;;;;5064381;28;20021;-85
2021/03/18 03:29:26;;;;;;;6.68;4.35;;;;;;;;;;5040647;28;20032;-85
2021/03/18 03:31:53;;;;;;;5.88;4.40;;;;;;;;;;5054360;28;20112;-85
2021/03/18 03:34:19;;;;;;;6.32;3.70;;;;;;;;;;5053924;28;20033;-85
2021/03/18 03:36:46;;;;;;;5.90;4.13;;;;;;;;;;5052756;28;20116;-85
2021/03/18 03:39:12;;;;;;;5.85;4.30;;;;;;;;;;5054150;28;20037;-85
2021/03/18 03:41:38;;;;;;;9.27;4.60;;;;;;;;;;5055196;28;20467;-85
2021/03/18 03:44:05;;;;;;;5.70;4.10;;;;;;;;;;5040707;28;20052;-85
2021/03/18 03:46:32;;;;;;;7.38;4.07;;;;;;;;;;5054357;28;20397;-85
2021/03/18 03:48:58;;;;;;;5.88;4.22;;;;;;;;;;5054250;28;20033;-85
2021/03/18 03:51:28;;;;;;;8.38;4.20;;;;;;;;;;5054314;28;20029;-85
2021/03/18 03:53:57;;;;;;;6.53;4.22;;;;;;;;;;5054337;28;20120;-85
2021/03/18 03:56:41;;;;;;;6.13;3.97;;;;;;;;;;5052824;28;20021;-86
2021/03/18 03:59:10;;;;;;;6.28;4.53;;;;;;;;;;5044264;28;20072;-85
2021/03/18 04:01:36;;;;;;;7.75;4.53;;;;;;;;;;5054151;28;20025;-85
2021/03/18 04:04:05;;;;;;;6.45;4.47;;;;;;;;;;5054036;28;20375;-85
2021/03/18 04:06:34;;;;;;;5.40;4.07;;;;;;;;;;5052222;28;20384;-85
2021/03/18 04:09:01;;;;;;;6.20;4.32;;;;;;;;;;5053769;28;20021;-85
2021/03/18 04:11:27;;;;;;;6.82;4.35;;;;;;;;;;5053327;28;20036;-85
2021/03/18 04:13:53;;;;;;;5.82;4.20;;;;;;;;;;5051869;28;20115;-85
2021/03/18 04:16:21;;;;;;;7.10;4.25;;;;;;;;;;5053471;28;20052;-85
2021/03/18 04:18:48;;;;;;;6.15;4.85;;;;;;;;;;5053805;28;20017;-85
2021/03/18 04:21:14;;;;;;;6.45;4.43;;;;;;;;;;5045610;28;20080;-85
2021/03/18 04:23:42;;;;;;;6.25;4.47;;;;;;;;;;5047031;28;20037;-84
2021/03/18 04:26:08;;;;;;;6.80;4.20;;;;;;;;;;5053789;28;20025;-85
2021/03/18 04:28:36;;;;;;;5.25;3.83;;;;;;;;;;5055419;28;20029;-85
2021/03/18 04:31:02;;;;;;;5.85;4.05;;;;;;;;;;5056111;28;20033;-84
2021/03/18 04:33:29;;;;;;;6.40;4.07;;;;;;;;;;5057598;28;20068;-85
2021/03/18 04:35:56;;;;;;;5.28;4.25;;;;;;;;;;5058050;28;20059;-85
2021/03/18 04:38:24;;;;;;;8.98;4.53;;;;;;;;;;5057601;28;20632;-85
2021/03/18 04:40:50;;;;;;;6.07;4.22;;;;;;;;;;5057930;28;20025;-84
2021/03/18 04:43:16;;;;;;;5.55;3.88;;;;;;;;;;5058047;28;20029;-85
2021/03/18 04:45:42;;;;;;;6.72;4.82;;;;;;;;;;5057904;28;20115;-85
2021/03/18 04:48:09;;;;;;;6.13;4.60;;;;;;;;;;5057910;28;20031;-85
2021/03/18 04:50:35;;;;;;;7.47;4.78;;;;;;;;;;5057178;28;20048;-85
2021/03/18 04:53:01;;;;;;;5.95;4.30;;;;;;;;;;5058259;28;20025;-85
2021/03/18 04:55:28;;;;;;;5.80;4.38;;;;;;;;;;5064941;28;20033;-85
2021/03/18 04:58:01;;;;;;;6.13;4.38;;;;;;;;;;5055687;28;20024;-85
2021/03/18 05:00:28;;;;;;;8.90;4.65;;;;;;;;;;5056957;28;20029;-84
2021/03/18 05:02:55;;;;;;;6.35;4.53;;;;;;;;;;5051708;28;20025;-85
2021/03/18 05:05:22;;;;;;;5.85;4.47;;;;;;;;;;5056901;28;20120;-85
2021/03/18 05:07:50;;;;;;;6.90;4.95;;;;;;;;;;5056756;28;20139;-85
2021/03/18 05:10:17;;;;;;;5.82;4.07;;;;;;;;;;5056964;28;20111;-85
2021/03/18 05:12:44;;;;;;;7.82;4.15;;;;;;;;;;5055472;28;20159;-85
2021/03/18 05:15:12;;;;;;;6.85;4.82;;;;;;;;;;5060820;28;20009;-85
2021/03/18 05:17:38;;;;;;;6.88;5.00;;;;;;;;;;5072630;28;20032;-85
2021/03/18 05:20:05;;;;;;;8.07;4.35;;;;;;;;;;5056292;28;20415;-85
2021/03/18 05:22:31;;;;;;;5.95;4.57;;;;;;;;;;5056328;28;20519;-85
2021/03/18 05:24:57;;;;;;;7.43;4.82;;;;;;;;;;5056210;28;20029;-85
2021/03/18 05:27:23;;;;;;;8.73;5.32;;;;;;;;;;5059350;28;20036;-85
2021/03/18 05:29:49;;;;;;;7.05;4.95;;;;;;;;;;5056065;28;20056;-84
2021/03/18 05:32:15;;;;;;;8.50;5.30;;;;;;;;;;5068155;28;20027;-85
2021/03/18 05:34:41;;;;;;;7.95;5.82;;;;;;;;;;5056581;28;20537;-85
2021/03/18 05:37:07;;;;;;;7.35;5.00;;;;;;;;;;5056220;28;20029;-85
2021/03/18 05:39:33;;;;;;;7.85;5.40;;;;;;;;;;5057866;28;20028;-84
2021/03/18 05:42:00;;;;;;;8.02;5.25;;;;;;;;;;5056514;28;20021;-85
2021/03/18 05:44:27;;;;;;;9.55;5.32;;;;;;;;;;5056573;28;20032;-85
2021/03/18 05:46:53;;;;;;;8.90;6.07;;;;;;;;;;5055802;28;20036;-86
2021/03/18 05:49:19;;;;;;;7.35;5.45;;;;;;;;;;5056233;28;20028;-85
2021/03/18 05:51:49;;;;;;;7.00;5.03;;;;;;;;;;5055829;28;20095;-85
2021/03/18 05:54:15;;;;;;;9.95;6.30;;;;;;;;;;5056150;28;20037;-85
2021/03/18 05:56:42;;;;;;;7.60;5.25;;;;;;;;;;5055178;28;20033;-85
2021/03/18 05:59:08;;;;;;;7.40;5.57;;;;;;;;;;5066944;28;20023;-85
2021/03/18 06:01:34;;;;;;;12.32;6.63;;;;;;;;;;5058553;28;20044;-85
2021/03/18 06:04:01;;;;;;;8.68;5.40;;;;;;;;;;5061369;28;20044;-85
2021/03/18 06:06:27;;;;;;;10.32;6.47;;;;;;;;;;5055829;28;20501;-85
2021/03/18 06:08:53;;;;;;;11.70;6.57;;;;;;;;;;5063710;28;20032;-85
2021/03/18 06:11:19;;;;;;;8.75;5.88;;;;;;;;;;5076110;28;20032;-85
2021/03/18 06:13:45;;;;;;;9.27;6.28;;;;;;;;;;5064227;28;20025;-85
2021/03/18 06:16:12;;;;;;;8.52;5.90;;;;;;;;;;5055082;28;20044;-85
2021/03/18 06:18:38;;;;;;;8.65;5.78;;;;;;;;;;5055256;28;20032;-85
2021/03/18 06:21:04;;;;;;;8.98;6.22;;;;;;;;;;5055318;28;20036;-85
2021/03/18 06:23:32;;;;;;;8.02;5.45;;;;;;;;;;5063231;28;20031;-86
2021/03/18 06:25:58;;;;;;;11.77;5.57;;;;;;;;;;5046558;28;20106;-85
2021/03/18 06:28:24;;;;;;;8.48;5.03;;;;;;;;;;5052593;28;20032;-85
2021/03/18 06:30:56;;;;;;;8.68;5.20;;;;;;;;;;5052070;28;20411;-85
2021/03/18 06:33:26;;;;;;;7.68;5.10;;;;;;;;;;5064572;28;20435;-85
2021/03/18 06:35:52;;;;;;;8.07;5.20;;;;;;;;;;5055339;28;20702;-85
2021/03/18 06:38:25;;;;;;;9.27;4.95;;;;;;;;;;5055346;28;20072;-85
2021/03/18 06:40:51;;;;;;;8.32;5.60;;;;;;;;;;5055887;28;20067;-85
2021/03/18 06:43:17;;;;;;;8.63;5.72;;;;;;;;;;5055134;28;20066;-86
2021/03/18 06:45:44;;;;;;;8.73;5.07;;;;;;;;;;5054842;28;20103;-85
2021/03/18 06:48:16;;;;;;;8.82;6.28;;;;;;;;;;5055987;28;20029;-85
2021/03/18 06:50:46;;;;;;;7.90;6.00;;;;;;;;;;5054876;28;20099;-85
2021/03/18 06:53:24;;;;;;;8.05;6.20;;;;;;;;;;5055809;28;20036;-85
2021/03/18 06:55:50;;;;;;;11.73;5.88;;;;;;;;;;5055594;28;20021;-85
2021/03/18 06:58:18;;;;;;;8.93;6.28;;;;;;;;;;5058816;28;20021;-85
2021/03/18 07:00:46;;;;;;;9.55;6.43;;;;;;;;;;5056049;28;20017;-85
2021/03/18 07:03:23;;;;;;;12.18;7.03;;;;;;;;;;5055864;28;20036;-85
2021/03/18 07:05:49;;;;;;;10.00;7.03;;;;;;;;;;5055646;28;20037;-86
2021/03/18 07:08:26;;;;;;;12.02;7.72;;;;;;;;;;5055418;28;20038;-85
2021/03/18 07:10:52;;;;;;;10.50;7.20;;;;;;;;;;5054558;28;20031;-85
2021/03/18 07:13:28;;;;;;;10.50;7.40;;;;;;;;;;5054541;28;20033;-85
2021/03/18 07:15:56;;;;;;;10.20;7.35;;;;;;;;;;5054995;28;20116;-85
2021/03/18 07:18:23;;;;;;;12.07;8.38;;;;;;;;;;5055469;28;20029;-86
2021/03/18 07:21:00;;;;;;;12.85;7.55;;;;;;;;;;5054779;28;20041;-86
2021/03/18 07:23:37;;;;;;;13.23;8.05;;;;;;;;;;5055560;28;20816;-86
2021/03/18 07:26:11;;;;;;;12.95;7.97;;;;;;;;;;5055064;28;20023;-86
2021/03/18 07:28:37;;;;;;;13.15;8.13;;;;;;;;;;5055015;28;20032;-86
2021/03/18 07:31:03;;;;;;;12.38;8.02;;;;;;;;;;5055310;28;20483;-86
2021/03/18 07:33:29;;;;;;;13.52;8.23;;;;;;;;;;5055352;28;20116;-86
2021/03/18 07:35:55;;;;;;;12.90;7.43;;;;;;;;;;5054109;28;20120;-87
2021/03/18 07:38:21;;;;;;;10.48;7.53;;;;;;;;;;5056636;28;20449;-87
2021/03/18 07:40:47;;;;;;;14.23;8.43;;;;;;;;;;5059537;28;20040;-87
2021/03/18 07:43:13;;;;;;;12.32;7.90;;;;;;;;;;5056110;28;20029;-87
2021/03/18 07:45:39;;;;;;;12.70;7.70;;;;;;;;;;5058130;28;20064;-87
2021/03/18 07:48:06;;;;;;;14.13;8.98;;;;;;;;;;5065940;28;20041;-88
2021/03/18 07:50:33;;;;;;;12.48;7.70;;;;;;;;;;5055151;28;20599;-87
2021/03/18 07:52:59;;;;;;;10.60;7.35;;;;;;;;;;5055234;28;20635;-87
2021/03/18 07:55:25;;;;;;;12.57;8.32;;;;;;;;;;5052664;28;20118;-89
2021/03/18 07:57:52;;;;;;;16.00;8.43;;;;;;;;;;5053344;28;20112;-88
2021/03/18 08:00:23;;;;;;;14.88;8.60;;;;;;;;;;5053387;28;20104;-89
2021/03/18 08:02:49;;;;;;;16.30;8.82;;;;;;;;;;5050207;28;20021;-89
2021/03/18 08:05:34;;;;;;;12.05;8.50;;;;;;;;;;5063975;28;20028;-88
2021/03/18 08:08:00;;;;;;;11.30;8.40;;;;;;;;;;5057433;28;20102;-89
2021/03/18 08:10:29;;;;;;;12.93;8.13;;;;;;;;;;5056929;28;20021;-89
2021/03/18 08:12:56;;;;;;;11.48;8.15;;;;;;;;;;5053491;28;20053;-89
2021/03/18 08:15:26;;;;;;;12.70;7.90;;;;;;;;;;5056648;28;20025;-90
2021/03/18 08:17:52;;;;;;;14.57;8.40;;;;;;;;;;5057231;28;20035;-89
2021/03/18 08:20:37;;;;;;;11.93;7.10;;;;;;;;;;5056041;28;20025;-89
2021/03/18 08:23:22;;;;;;;11.68;7.93;;;;;;;;;;5053649;28;20377;-89
2021/03/18 08:25:49;;;;;;;12.10;8.10;;;;;;;;;;5054479;28;20021;-89
2021/03/18 08:28:34;;;;;;;14.45;8.35;;;;;;;;;;5057918;28;20036;-90
2021/03/18 08:31:00;;;;;;;12.65;7.80;;;;;;;;;;5060684;28;20025;-90
2021/03/18 08:33:36;;;;;;;16.75;9.07;;;;;;;;;;5059102;28;20029;-90
2021/03/18 08:36:20;;;;;;;13.18;8.13;;;;;;;;;;5058280;28;20033;-90
2021/03/18 08:38:47;;;;;;;14.30;8.80;;;;;;;;;;5058529;28;20021;-90
2021/03/18 08:41:31;;;;;;;12.50;8.50;;;;;;;;;;5056782;28;20112;-91
2021/03/18 08:44:31;;;;;;;13.52;8.38;;;;;;;;;;5058097;28;20404;-91
2021/03/18 08:47:01;;;;;;;14.45;8.93;;;;;;;;;;5047079;28;20052;-92
2021/03/18 08:49:29;;;;;;;13.90;8.45;;;;;;;;;;5060320;28;20043;-91
2021/03/18 08:51:57;;;;;;;13.10;8.77;;;;;;;;;;5057509;28;20102;-91
2021/03/18 08:54:39;;;;;;;14.13;9.43;;;;;;;;;;5058530;28;20037;-93
2021/03/18 08:57:06;;;;;;;14.35;9.10;;;;;;;;;;5074806;28;20021;-91
2021/03/18 08:59:32;;;;;;;15.23;9.70;;;;;;;;;;5070906;28;20048;-91
2021/03/18 09:02:12;;;;;;;15.18;9.35;;;;;;;;;;5068905;28;20040;-90
2021/03/18 09:04:37;;;;;;;15.02;8.68;;;;;;;;;;5046750;28;20072;-90
2021/03/18 09:07:05;;;;;;;17.02;9.00;;;;;;;;;;5056968;28;20022;-87
2021/03/18 09:09:31;;;;;;;14.27;9.30;;;;;;;;;;5050199;28;20036;-89
2021/03/18 09:11:57;;;;;;;16.10;9.35;;;;;;;;;;5056079;28;20025;-89
2021/03/18 09:14:23;;;;;;;14.70;8.90;;;;;;;;;;5053609;28;20051;-89
2021/03/18 09:16:49;;;;;;;14.10;8.40;;;;;;;;;;5058669;28;20063;-90
2021/03/18 09:19:15;;;;;;;15.25;9.55;;;;;;;;;;5063631;28;20029;-90
2021/03/18 09:21:43;;;;;;;16.23;9.85;;;;;;;;;;5055946;28;20037;-90
2021/03/18 09:24:10;;;;;;;14.13;9.05;;;;;;;;;;5056576;28;20108;-89
2021/03/18 09:26:36;;;;;;;14.05;9.02;;;;;;;;;;5056160;28;20033;-89
2021/03/18 09:29:02;;;;;;;15.20;9.45;;;;;;;;;;5050903;28;20029;-90
2021/03/18 09:31:28;;;;;;;14.70;9.27;;;;;;;;;;5055656;28;20353;-90
2021/03/18 09:33:56;;;;;;;18.25;9.40;;;;;;;;;;5062451;28;20037;-90
2021/03/18 09:36:25;;;;;;;12.90;8.32;;;;;;;;;;5055397;28;21820;-90
2021/03/18 09:38:55;;;;;;;18.02;10.15;;;;;;;;;;5054706;28;20028;-90
2021/03/18 09:41:23;;;;;;;16.75;9.65;;;;;;;;;;5055663;28;20029;-90
2021/03/18 09:43:49;;;;;;;17.00;10.30;;;;;;;;;;5060585;28;20532;-89
2021/03/18 09:46:15;;;;;;;14.85;8.55;;;;;;;;;;5064282;28;20033;-89
2021/03/18 09:48:41;;;;;;;17.65;9.98;;;;;;;;;;5053669;28;20056;-89
2021/03/18 09:51:11;;;;;;;17.85;10.13;;;;;;;;;;5046843;28;20527;-90
2021/03/18 09:53:38;;;;;;;15.10;10.13;;;;;;;;;;5054925;28;20060;-89
2021/03/18 09:56:12;;;;;;;15.52;9.55;;;;;;;;;;5057458;28;20407;-89
2021/03/18 09:58:38;;;;;;;;;;;;;;;;;;5040411;28;20048;-89
2021/03/18 10:01:14;;;;;;;17.75;10.13;;;;;;;;;;5055404;28;19909;-90
2021/03/18 10:03:56;;;;;;;17.95;10.32;;;;;;;;;;5055398;28;20025;-89
2021/03/18 10:06:32;;;;;;;15.52;9.77;;;;;;;;;;5041153;28;20468;-89
2021/03/18 10:09:17;;;;;;;17.52;10.45;;;;;;;;;;5046581;28;20124;-89
2021/03/18 10:11:44;;;;;;;18.15;9.80;;;;;;;;;;5048113;28;20025;-90
2021/03/18 10:14:10;;;;;;;12.50;8.18;;;;;;;;;;5050208;28;20450;-91
2021/03/18 10:16:38;;;;;;;15.25;9.82;;;;;;;;;;5049205;28;20699;-90
2021/03/18 10:19:05;;;;;;;15.70;9.25;;;;;;;;;;5050453;28;20596;-91
2021/03/18 10:21:31;;;;;;;12.70;8.52;;;;;;;;;;5058286;28;20090;-89
2021/03/18 10:23:57;;;;;;;14.10;8.05;;;;;;;;;;5054342;28;20475;-90
2021/03/18 10:26:24;;;;;;;19.75;8.95;;;;;;;;;;5063724;28;20036;-90
2021/03/18 10:29:10;;;;;;;13.70;8.40;;;;;;;;;;5054241;28;20024;-90
2021/03/18 10:31:37;;;;;;;14.85;8.57;;;;;;;;;;5054142;28;20427;-90
2021/03/18 10:34:05;;;;;;;14.25;9.20;;;;;;;;;;5054445;28;20029;-90
2021/03/18 10:36:38;;;;;;;13.77;8.48;;;;;;;;;;5054192;28;20028;-90
2021/03/18 10:39:05;;;;;;;16.40;8.75;;;;;;;;;;5053787;28;20032;-89
2021/03/18 10:41:32;;;;;;;15.98;9.30;;;;;;;;;;5054683;28;20023;-90
2021/03/18 10:43:58;;;;;;;14.68;9.02;;;;;;;;;;5054157;28;20036;-89
2021/03/18 10:46:29;;;;;;;16.50;8.32;;;;;;;;;;5053815;28;20148;-90
2021/03/18 10:48:55;;;;;;;12.70;7.80;;;;;;;;;;5054726;28;20091;-90
2021/03/18 10:51:22;;;;;;;11.35;8.15;;;;;;;;;;5043163;28;20059;-89
2021/03/18 10:53:51;;;;;;;17.20;9.55;;;;;;;;;;5046679;28;20460;-90
2021/03/18 10:56:20;;;;;;;13.25;8.15;;;;;;;;;;5059420;28;20412;-91
2021/03/18 10:58:46;;;;;;;11.68;7.78;;;;;;;;;;5046840;28;20028;-90
2021/03/18 11:01:13;;;;;;;15.70;7.72;;;;;;;;;;5046518;28;20021;-90
2021/03/18 11:03:43;;;;;;;11.70;7.10;;;;;;;;;;5042352;28;20155;-90
2021/03/18 11:06:13;;;;;;;12.75;8.02;;;;;;;;;;5055344;28;20364;-91
2021/03/18 11:08:41;;;;;;;13.98;8.10;;;;;;;;;;5054342;28;20028;-89
2021/03/18 11:11:12;;;;;;;13.02;7.18;;;;;;;;;;5048847;28;20131;-89
2021/03/18 11:13:41;;;;;;;10.77;7.07;;;;;;;;;;5052960;28;20036;-90
2021/03/18 11:16:07;;;;;;;9.82;6.15;;;;;;;;;;5067151;28;20025;-90
2021/03/18 11:18:34;;;;;;;12.65;7.28;;;;;;;;;;5055587;28;20036;-91
2021/03/18 11:21:00;;;;;;;13.40;6.32;;;;;;;;;;5052708;28;20396;-90
2021/03/18 11:23:28;;;;;;;12.32;6.10;;;;;;;;;;5067257;28;20036;-90
2021/03/18 11:25:57;;;;;;;10.05;6.00;;;;;;;;;;5057083;28;20021;-90
2021/03/18 11:28:23;;;;;;;10.93;6.15;;;;;;;;;;5049346;28;20031;-90
2021/03/18 11:30:50;;;;;;;8.73;5.53;;;;;;;;;;5044826;28;20060;-90
2021/03/18 11:33:16;;;;;;;9.63;5.20;;;;;;;;;;5050153;28;20025;-90
2021/03/18 11:35:44;;;;;;;6.88;4.35;;;;;;;;;;5053917;28;20488;-89
2021/03/18 11:38:10;;;;;;;10.35;4.63;;;;;;;;;;5056544;28;20055;-90
2021/03/18 11:40:37;;;;;;;8.00;4.03;;;;;;;;;;5057576;28;20036;-90
2021/03/18 11:43:03;;;;;;;6.00;3.53;;;;;;;;;;5058689;28;20110;-90
2021/03/18 11:45:29;;;;;;;6.28;3.42;;;;;;;;;;5058026;28;20463;-89
2021/03/18 11:47:56;;;;;;;7.93;3.00;;;;;;;;;;5062123;28;20487;-90
2021/03/18 11:50:23;;;;;;;6.03;3.45;;;;;;;;;;5068621;28;20120;-90
2021/03/18 11:52:49;;;;;;;5.10;2.95;;;;;;;;;;5055849;28;20021;-90
2021/03/18 11:55:15;;;;;;;5.35;3.03;;;;;;;;;;5057589;28;20036;-90
2021/03/18 11:57:41;;;;;;;4.93;3.08;;;;;;;;;;5054618;28;20029;-91
2021/03/18 12:00:09;;;;;;;4.18;2.80;;;;;;;;;;5056874;28;20108;-90
2021/03/18 12:02:35;;;;;;;5.95;3.00;;;;;;;;;;5050237;28;20021;-90
2021/03/18 12:05:01;;;;;;;4.57;2.80;;;;;;;;;;5048624;28;20500;-90
2021/03/18 12:07:27;;;;;;;5.57;2.95;;;;;;;;;;5056770;28;20029;-90
2021/03/18 12:09:53;;;;;;;6.45;3.13;;;;;;;;;;5056250;28;20059;-89
2021/03/18 12:12:19;;;;;;;2.63;1.92;;;;;;;;;;5056224;28;20452;-89
2021/03/18 12:14:45;;;;;;;3.35;1.90;;;;;;;;;;5056195;28;20025;-90
2021/03/18 12:17:11;;;;;;;3.22;1.75;;;;;;;;;;5055757;28;20087;-90
2021/03/18 12:19:37;;;;;;;4.15;2.38;;;;;;;;;;5055004;28;20021;-90
2021/03/18 12:22:03;;;;;;;5.72;2.50;;;;;;;;;;5055945;28;20086;-91
2021/03/18 12:24:29;;;;;;;3.72;2.65;;;;;;;;;;5060532;28;20039;-91
2021/03/18 12:26:55;;;;;;;4.88;2.85;;;;;;;;;;5060208;28;20021;-90
2021/03/18 12:29:21;;;;;;;4.03;2.58;;;;;;;;;;5053336;28;20094;-91
2021/03/18 12:31:47;;;;;;;3.78;2.45;;;;;;;;;;5057959;28;20028;-91
2021/03/18 12:34:13;;;;;;;6.88;3.22;;;;;;;;;;5059179;28;20076;-91
2021/03/18 12:36:39;;;;;;;4.63;2.90;;;;;;;;;;5057010;28;20033;-91
2021/03/18 12:39:06;;;;;;;4.63;2.88;;;;;;;;;;5059542;28;20029;-91
2021/03/18 12:41:33;;;;;;;4.25;3.00;;;;;;;;;;5069618;28;20025;-91
2021/03/18 12:43:59;;;;;;;10.15;5.78;;;;;;;;;;5058286;28;20025;-91
2021/03/18 12:46:25;;;;;;;4.45;2.47;;;;;;;;;;5059144;28;20032;-91
2021/03/18 12:48:52;;;;;;;3.63;2.67;;;;;;;;;;5063788;28;20069;-91
2021/03/18 12:51:18;;;;;;;5.40;2.70;;;;;;;;;;5056848;28;20040;-91
2021/03/18 12:53:44;;;;;;;4.45;2.92;;;;;;;;;;5050457;28;20090;-92
2021/03/18 12:56:10;;;;;;;5.70;3.20;;;;;;;;;;5059769;28;20021;-91
2021/03/18 12:58:36;;;;;;;7.57;2.80;;;;;;;;;;5053909;28;20029;-91
2021/03/18 13:01:02;;;;;;;4.45;2.88;;;;;;;;;;5051395;28;20376;-91
2021/03/18 13:03:28;;;;;;;3.05;2.38;;;;;;;;;;5064048;28;20051;-91
2021/03/18 13:05:54;;;;;;;4.85;2.65;;;;;;;;;;5074382;28;20041;-90
2021/03/18 13:08:20;;;;;;;4.78;2.42;;;;;;;;;;5072149;28;20052;-90
2021/03/18 13:10:46;;;;;;;4.45;2.00;;;;;;;;;;5052867;28;20020;-89
2021/03/18 13:13:18;;;;;;;5.07;2.17;;;;;;;;;;5055548;28;20036;-91
2021/03/18 13:15:50;;;;;;;2.95;2.05;;;;;;;;;;5051884;28;20021;-91
2021/03/18 13:18:16;;;;;;;2.65;1.80;;;;;;;;;;5066777;28;20024;-91
2021/03/18 13:26:55;;;;;;;2.72;2.10;;;;;;;;;;5045454;28;20438;-91
2021/03/18 13:29:31;;;;;;;2.83;1.95;;;;;;;;;;5058628;28;20036;-91
2021/03/18 13:31:57;;;;;;;5.15;1.70;;;;;;;;;;5060888;28;20037;-90
2021/03/18 13:34:23;;;;;;;3.28;1.70;;;;;;;;;;5056306;28;20033;-90
2021/03/18 13:36:49;;;;;;;2.80;1.98;;;;;;;;;;5054694;28;20052;-90
2021/03/18 13:39:15;;;;;;;2.22;1.40;;;;;;;;;;5069387;28;20052;-90
2021/03/18 13:41:41;;;;;;;1.98;1.40;;;;;;;;;;5062264;28;20582;-90
2021/03/18 13:44:07;;;;;;;1.70;1.20;;;;;;;;;;5055353;28;20029;-91
2021/03/18 13:46:33;;;;;;;4.68;2.03;;;;;;;;;;5058930;28;20103;-91
2021/03/18 13:48:59;;;;;;;3.25;1.50;;;;;;;;;;5055536;28;20170;-91
2021/03/18 13:51:25;;;;;;;2.40;1.60;;;;;;;;;;5053498;28;20377;-91
2021/03/18 13:53:51;;;;;;;2.50;1.35;;;;;;;;;;5067281;28;20036;-91
2021/03/18 13:56:17;;;;;;;3.03;1.80;;;;;;;;;;5064314;28;20051;-90
2021/03/18 13:58:45;;;;;;;4.18;2.15;;;;;;;;;;5074622;28;20078;-90
2021/03/18 14:01:11;;;;;;;4.15;2.22;;;;;;;;;;5063184;28;20041;-90
2021/03/18 14:03:37;;;;;;;3.50;2.08;;;;;;;;;;5052891;28;20037;-89
2021/03/18 14:06:03;;;;;;;2.80;2.03;;;;;;;;;;5060593;28;20037;-90
2021/03/18 14:08:29;;;;;;;4.20;2.30;;;;;;;;;;5069358;28;20695;-90
2021/03/18 14:10:55;;;;;;;4.22;2.70;;;;;;;;;;5056071;28;20087;-89
2021/03/18 14:13:21;;;;;;;3.13;2.28;;;;;;;;;;5064850;28;20075;-89
2021/03/18 14:15:48;;;;;;;4.63;2.47;;;;;;;;;;5067981;28;20104;-89
2021/03/18 14:18:15;;;;;;;3.17;2.45;;;;;;;;;;5044962;28;20029;-90
2021/03/18 14:20:43;;;;;;;6.50;3.03;;;;;;;;;;5054427;28;20057;-90
2021/03/18 14:23:10;;;;;;;4.22;2.50;;;;;;;;;;5053422;28;20032;-91
2021/03/18 14:25:36;;;;;;;5.90;2.92;;;;;;;;;;5055243;28;20051;-90
2021/03/18 14:28:02;;;;;;;5.47;2.65;;;;;;;;;;5057897;28;20014;-91
2021/03/18 14:30:29;;;;;;;5.57;2.50;;;;;;;;;;5056483;28;20083;-90
2021/03/18 14:32:55;;;;;;;5.75;3.20;;;;;;;;;;5059370;28;20032;-90
2021/03/18 14:35:22;;;;;;;6.55;3.83;;;;;;;;;;5056236;28;20032;-91
2021/03/18 14:37:48;;;;;;;6.07;3.45;;;;;;;;;;5049477;28;20028;-91
2021/03/18 14:40:15;;;;;;;6.80;2.78;;;;;;;;;;5050149;28;20040;-91
2021/03/18 14:42:42;;;;;;;5.40;2.88;;;;;;;;;;5049415;28;20032;-90
2021/03/18 14:45:09;;;;;;;4.15;2.50;;;;;;;;;;5055288;28;20033;-91
2021/03/18 14:47:37;;;;;;;6.30;2.25;;;;;;;;;;5054955;28;20091;-91